Nutley, New Jersey
Current Conditions -  °F | °C
As of 9:51 AM on Sunday 21 Dec 2014 (Local Time) from KTEB Reporting Station
Overcast Overcast  
Wind Chill: -2°   Ceiling: 1600
Heat Index:   Visibility: 10mi
Dew Point: -4°   Wind: 6mph
Humidity: 70%   Direction: 310°NW
Pressure: 30.32"   Gusts: NA
Location:  40.82°N, 74.16°W
Report Text: KTEB 211451Z 31005KT 10SM OVC016 01/M04 A3032 RMK AO2 SLP268 T00061044 53007
Loading
Personal Weather Stations






























Interactive Weather Map New forecast layout! Learn more

10-Day Weather Forecast

Advertisements
Track Severe Weather on mobile